Time;durP1;ratioP1;P1;durP2;ratioP2;P2;SDS_P1;SDS_P2;PMS_P1;PMS_P2;Temp;Humidity;BMP_temperature;BMP_pressure;BME280_temperature;BME280_humidity;BME280_pressure;Samples;Min_cycle;Max_cycle;Signal;HPM_P1;HPM_P2
2023/03/16 00:00:20;;;;;;;8.07;5.47;;;3.30;98.50;;;;;;4992193;28;20254;-88
2023/03/16 00:02:47;;;;;;;6.60;4.63;;;3.30;98.80;;;;;;4985784;28;20670;-88
2023/03/16 00:05:15;;;;;;;5.83;4.60;;;3.40;98.80;;;;;;4989265;28;20204;-89
2023/03/16 00:07:44;;;;;;;9.50;4.93;;;3.40;98.50;;;;;;4989231;28;20275;-88
2023/03/16 00:10:12;;;;;;;7.37;4.60;;;3.40;98.90;;;;;;4988297;28;20201;-88
2023/03/16 00:12:42;;;;;;;7.73;4.47;;;3.40;98.90;;;;;;4986855;28;20635;-88
2023/03/16 00:15:10;;;;;;;7.27;4.80;;;3.50;98.70;;;;;;4986149;28;20196;-88
2023/03/16 00:17:36;;;;;;;6.50;4.20;;;3.50;98.00;;;;;;4989674;28;20566;-88
2023/03/16 00:20:05;;;;;;;6.33;4.20;;;3.50;98.10;;;;;;4990515;28;20231;-89
2023/03/16 00:22:34;;;;;;;8.70;4.50;;;3.60;98.10;;;;;;4991070;28;20856;-88
2023/03/16 00:25:01;;;;;;;7.27;4.50;;;3.50;97.90;;;;;;4988578;28;20211;-88
2023/03/16 00:27:28;;;;;;;4.40;4.00;;;3.50;98.20;;;;;;4991736;28;20200;-88
2023/03/16 00:29:55;;;;;;;5.90;4.07;;;3.60;98.00;;;;;;4991367;28;20207;-89
2023/03/16 00:32:24;;;;;;;5.33;4.20;;;3.50;97.60;;;;;;4994099;28;20203;-88
2023/03/16 00:34:51;;;;;;;5.37;4.13;;;3.50;97.70;;;;;;5007907;28;20191;-91
2023/03/16 00:37:22;;;;;;;8.47;4.40;;;3.50;97.70;;;;;;5008667;28;20226;-88
2023/03/16 00:39:51;;;;;;;6.53;3.90;;;3.50;97.40;;;;;;5002401;28;20628;-88
2023/03/16 00:42:19;;;;;;;5.17;4.07;;;3.50;97.40;;;;;;4989615;28;20204;-88
2023/03/16 00:44:47;;;;;;;5.60;3.67;;;3.40;97.30;;;;;;4983509;28;20221;-88
2023/03/16 00:47:14;;;;;;;5.90;3.93;;;3.30;97.30;;;;;;4983715;28;20207;-89
2023/03/16 00:49:43;;;;;;;5.97;3.63;;;3.20;97.70;;;;;;4995416;28;20211;-88
2023/03/16 00:52:13;;;;;;;5.30;3.97;;;3.10;97.90;;;;;;4990522;28;20222;-88
2023/03/16 00:54:43;;;;;;;5.60;4.00;;;3.00;97.90;;;;;;4996404;28;20266;-88
2023/03/16 00:57:14;;;;;;;6.23;3.70;;;3.00;98.40;;;;;;4991387;28;20283;-88
2023/03/16 00:59:41;;;;;;;5.83;3.63;;;3.10;98.30;;;;;;4990733;28;20278;-87
2023/03/16 01:02:09;;;;;;;6.00;4.00;;;3.20;98.00;;;;;;4993111;28;20214;-89
2023/03/16 01:04:36;;;;;;;5.77;3.80;;;3.10;97.90;;;;;;4990749;28;20200;-87
2023/03/16 01:07:04;;;;;;;5.60;3.60;;;3.10;98.00;;;;;;4993912;28;20199;-87
2023/03/16 01:09:35;;;;;;;5.07;4.10;;;3.00;97.90;;;;;;4976994;28;20204;-87
2023/03/16 01:12:04;;;;;;;7.83;3.63;;;2.90;98.10;;;;;;4977781;28;20207;-88
2023/03/16 01:14:35;;;;;;;7.07;4.17;;;2.70;98.30;;;;;;4993066;28;20205;-87
2023/03/16 01:17:02;;;;;;;5.10;4.23;;;2.60;98.60;;;;;;4992067;28;20202;-87
2023/03/16 01:19:32;;;;;;;5.63;4.07;;;2.50;99.00;;;;;;4989297;28;20224;-87
2023/03/16 01:22:00;;;;;;;5.30;3.97;;;2.40;99.40;;;;;;4996046;28;20315;-88
2023/03/16 01:24:27;;;;;;;5.27;3.70;;;2.60;99.70;;;;;;4994006;28;20200;-86
2023/03/16 01:26:54;;;;;;;6.63;3.80;;;2.80;98.90;;;;;;4991191;28;20219;-87
2023/03/16 01:29:21;;;;;;;5.27;3.47;;;2.90;98.10;;;;;;4989630;28;20228;-87
2023/03/16 01:31:49;;;;;;;6.97;4.07;;;2.80;97.80;;;;;;4986319;28;20204;-87
2023/03/16 01:34:17;;;;;;;6.83;3.80;;;2.70;97.60;;;;;;4992528;28;20219;-87
2023/03/16 01:36:44;;;;;;;5.67;4.00;;;2.60;98.10;;;;;;4988221;28;20204;-87
2023/03/16 01:39:11;;;;;;;5.27;4.20;;;2.40;98.80;;;;;;4989739;28;20203;-88
2023/03/16 01:41:40;;;;;;;6.70;3.80;;;2.40;98.80;;;;;;4992597;28;20204;-89
2023/03/16 01:44:06;;;;;;;7.03;4.10;;;2.30;99.00;;;;;;4993054;28;20204;-87
2023/03/16 01:46:33;;;;;;;6.00;4.23;;;2.30;99.70;;;;;;4990790;28;20208;-87
2023/03/16 01:49:07;;;;;;;4.93;3.87;;;2.20;99.70;;;;;;4992339;28;20227;-88
2023/03/16 01:51:42;;;;;;;6.33;4.27;;;2.10;99.60;;;;;;4989562;28;20322;-87
2023/03/16 01:54:15;;;;;;;5.63;3.80;;;2.00;99.60;;;;;;4988614;28;20226;-88
2023/03/16 01:56:45;;;;;;;7.17;4.23;;;2.00;99.60;;;;;;4989055;28;20201;-88
2023/03/16 01:59:15;;;;;;;5.80;4.30;;;2.00;99.90;;;;;;4987022;28;20196;-89
2023/03/16 02:01:42;;;;;;;7.30;4.30;;;2.00;99.90;;;;;;4991996;28;20204;-89
2023/03/16 02:04:35;;;;;;;7.03;4.40;;;1.90;99.90;;;;;;4992789;28;20223;-87
2023/03/16 02:07:03;;;;;;;5.73;4.47;;;1.80;99.90;;;;;;4991609;28;20235;-88
2023/03/16 02:09:31;;;;;;;6.83;4.20;;;1.80;99.90;;;;;;4992358;28;20207;-87
2023/03/16 02:12:00;;;;;;;6.10;4.37;;;2.00;99.90;;;;;;4986993;28;20642;-89
2023/03/16 02:14:27;;;;;;;7.20;4.83;;;1.90;99.60;;;;;;4989323;28;20227;-87
2023/03/16 02:16:55;;;;;;;5.63;4.47;;;1.80;99.70;;;;;;4991827;28;20204;-87
2023/03/16 02:19:34;;;;;;;5.63;4.67;;;1.80;99.90;;;;;;4992097;28;20223;-87
2023/03/16 02:22:05;;;;;;;7.50;4.93;;;1.70;99.90;;;;;;4989483;28;20224;-88
2023/03/16 02:24:32;;;;;;;6.07;4.70;;;1.70;99.90;;;;;;4986404;28;20208;-87
2023/03/16 02:27:04;;;;;;;8.37;4.90;;;1.80;99.90;;;;;;4992501;28;20214;-86
2023/03/16 02:29:56;;;;;;;7.20;4.83;;;1.80;99.90;;;;;;4987718;28;20211;-87
2023/03/16 02:32:26;;;;;;;8.13;5.20;;;1.80;99.90;;;;;;4989999;28;20196;-87
2023/03/16 02:34:54;;;;;;;6.77;5.10;;;1.80;99.90;;;;;;4989850;28;20201;-87
2023/03/16 02:37:21;;;;;;;8.20;5.47;;;1.80;99.90;;;;;;4993983;28;20204;-87
2023/03/16 02:39:48;;;;;;;9.60;6.53;;;1.70;99.90;;;;;;4990990;28;20242;-90
2023/03/16 02:42:18;;;;;;;9.50;5.63;;;1.60;99.90;;;;;;4990364;28;20671;-87
2023/03/16 02:44:50;;;;;;;9.33;6.50;;;1.70;99.90;;;;;;4985197;28;20208;-86
2023/03/16 02:47:27;;;;;;;11.70;6.43;;;1.60;99.90;;;;;;4987128;28;20562;-86
2023/03/16 02:49:54;;;;;;;8.23;6.67;;;1.60;99.90;;;;;;4988193;28;20215;-87
2023/03/16 02:52:21;;;;;;;13.77;6.90;;;1.60;99.90;;;;;;4986354;28;20243;-86
2023/03/16 02:54:47;;;;;;;7.97;6.40;;;1.70;99.90;;;;;;4991250;28;20200;-87
2023/03/16 02:57:14;;;;;;;11.77;6.43;;;1.70;99.90;;;;;;4988183;28;20200;-87
2023/03/16 02:59:41;;;;;;;9.10;6.70;;;1.70;99.90;;;;;;4985414;28;20219;-88
2023/03/16 03:02:08;;;;;;;7.37;6.20;;;1.80;99.90;;;;;;4985244;28;20200;-89
2023/03/16 03:04:36;;;;;;;8.23;5.97;;;1.80;99.90;;;;;;4989109;28;20208;-86
2023/03/16 03:07:04;;;;;;;9.00;6.27;;;1.90;99.90;;;;;;4991393;28;20208;-87
2023/03/16 03:09:33;;;;;;;10.37;6.00;;;1.90;99.90;;;;;;4989679;28;20208;-88
2023/03/16 03:12:00;;;;;;;9.03;6.63;;;2.00;99.90;;;;;;4991781;28;20216;-88
2023/03/16 03:14:28;;;;;;;9.67;6.20;;;2.10;99.90;;;;;;4987016;28;20219;-88
2023/03/16 03:16:55;;;;;;;9.53;6.17;;;2.00;99.90;;;;;;4990023;28;20204;-88
2023/03/16 03:19:23;;;;;;;9.23;6.07;;;2.10;99.90;;;;;;4988804;28;20199;-86
2023/03/16 03:21:55;;;;;;;8.43;6.13;;;2.10;99.90;;;;;;4990587;28;20228;-86
2023/03/16 03:24:23;;;;;;;8.57;6.10;;;2.20;99.70;;;;;;4989546;28;20200;-87
2023/03/16 03:26:50;;;;;;;8.77;6.30;;;2.00;99.60;;;;;;4990347;28;20215;-86
2023/03/16 03:29:17;;;;;;;11.87;7.40;;;1.90;99.60;;;;;;4986223;28;20216;-87
2023/03/16 03:31:45;;;;;;;8.87;6.07;;;1.90;99.90;;;;;;4982680;28;20207;-87
2023/03/16 03:34:12;;;;;;;8.67;6.27;;;1.90;99.90;;;;;;4986724;28;22651;-87
2023/03/16 03:36:40;;;;;;;10.67;7.00;;;1.90;99.90;;;;;;4990260;28;20204;-87
2023/03/16 03:39:09;;;;;;;10.43;7.30;;;1.90;99.90;;;;;;4989136;28;20204;-87
2023/03/16 03:41:37;;;;;;;10.47;7.00;;;1.90;99.90;;;;;;4992334;28;20232;-86
2023/03/16 03:44:05;;;;;;;11.70;6.93;;;1.80;99.90;;;;;;4989313;28;20211;-87
2023/03/16 03:46:32;;;;;;;12.10;7.47;;;1.70;99.90;;;;;;4984658;28;20236;-87
2023/03/16 03:49:02;;;;;;;13.70;8.00;;;1.70;99.90;;;;;;4985124;28;20200;-86
2023/03/16 03:51:30;;;;;;;9.97;7.87;;;1.60;99.90;;;;;;4986111;28;20242;-88
2023/03/16 03:53:57;;;;;;;9.20;7.17;;;1.60;99.90;;;;;;4987073;28;20561;-86
2023/03/16 03:56:25;;;;;;;10.13;7.90;;;1.60;99.90;;;;;;4990665;28;20216;-87
2023/03/16 03:58:52;;;;;;;10.23;7.30;;;1.60;99.90;;;;;;4990093;28;20204;-86
2023/03/16 04:01:19;;;;;;;9.73;7.03;;;1.50;99.90;;;;;;4987934;28;20224;-87
2023/03/16 04:03:46;;;;;;;12.73;8.57;;;1.40;99.90;;;;;;4983660;28;20216;-86
2023/03/16 04:06:14;;;;;;;11.37;7.47;;;1.40;99.90;;;;;;4979616;28;20223;-86
2023/03/16 04:08:41;;;;;;;11.10;7.37;;;1.40;99.90;;;;;;4987710;28;20217;-87
2023/03/16 04:11:08;;;;;;;10.67;7.67;;;1.30;99.90;;;;;;4989627;28;20247;-87
2023/03/16 04:13:36;;;;;;;11.37;7.57;;;1.20;99.90;;;;;;4985421;28;20207;-86
2023/03/16 04:16:04;;;;;;;11.20;8.00;;;1.20;99.90;;;;;;4989615;28;20209;-86
2023/03/16 04:18:37;;;;;;;11.10;8.10;;;1.20;99.90;;;;;;4992462;28;20202;-87
2023/03/16 04:21:05;;;;;;;10.20;8.17;;;1.30;99.90;;;;;;4982893;28;20258;-87
2023/03/16 04:23:33;;;;;;;13.70;7.60;;;1.20;99.90;;;;;;4988499;28;20224;-87
2023/03/16 04:26:00;;;;;;;10.33;7.60;;;1.20;99.90;;;;;;4987837;28;20208;-86
2023/03/16 04:28:27;;;;;;;12.57;8.33;;;1.20;99.90;;;;;;4985037;28;20223;-86
2023/03/16 04:30:56;;;;;;;12.00;8.00;;;1.10;99.90;;;;;;5000458;28;20203;-86
2023/03/16 04:33:23;;;;;;;10.67;7.90;;;1.10;99.90;;;;;;5005166;28;20196;-86
2023/03/16 04:35:51;;;;;;;10.30;8.00;;;1.10;99.90;;;;;;4996955;28;20204;-87
2023/03/16 04:38:17;;;;;;;13.23;8.87;;;1.10;99.90;;;;;;4993390;28;20338;-88
2023/03/16 04:40:44;;;;;;;9.77;7.77;;;1.10;99.90;;;;;;4989580;28;20231;-86
2023/03/16 04:43:12;;;;;;;12.43;8.50;;;1.10;99.90;;;;;;4992560;28;20280;-87
2023/03/16 04:45:40;;;;;;;13.33;8.60;;;1.10;99.90;;;;;;4991398;28;20200;-87
2023/03/16 04:48:08;;;;;;;11.97;7.90;;;1.20;99.90;;;;;;4987862;28;20231;-87
2023/03/16 04:50:35;;;;;;;11.40;8.10;;;1.20;99.90;;;;;;4981722;28;20533;-86
2023/03/16 04:53:03;;;;;;;15.17;8.00;;;1.20;99.90;;;;;;4986657;28;20262;-87
2023/03/16 04:55:30;;;;;;;14.17;8.50;;;1.10;99.90;;;;;;4984610;28;20666;-86
2023/03/16 04:57:57;;;;;;;13.23;9.30;;;1.10;99.90;;;;;;4984933;28;20215;-87
2023/03/16 05:00:24;;;;;;;11.80;8.93;;;1.10;99.90;;;;;;4989576;28;20234;-87
2023/03/16 05:02:51;;;;;;;12.33;8.87;;;1.10;99.90;;;;;;4988451;28;20703;-87
2023/03/16 05:05:22;;;;;;;12.10;8.60;;;1.10;99.90;;;;;;4981803;28;20215;-90
2023/03/16 05:07:49;;;;;;;11.87;8.70;;;1.20;99.90;;;;;;4989843;28;20204;-87
2023/03/16 05:10:18;;;;;;;10.77;8.50;;;1.20;99.90;;;;;;4984364;28;20215;-86
2023/03/16 05:12:45;;;;;;;11.47;8.77;;;1.20;99.90;;;;;;4991169;28;20239;-86
2023/03/16 05:15:12;;;;;;;12.00;8.43;;;1.30;99.90;;;;;;4986938;28;20204;-87
2023/03/16 05:17:40;;;;;;;11.57;9.20;;;1.30;99.90;;;;;;4983067;28;20660;-86
2023/03/16 05:20:11;;;;;;;12.53;9.13;;;1.20;99.90;;;;;;4987660;28;20587;-86
2023/03/16 05:22:40;;;;;;;13.17;9.40;;;1.20;99.90;;;;;;4988355;28;20255;-86
2023/03/16 05:25:08;;;;;;;12.20;9.07;;;1.10;99.90;;;;;;4984401;28;20664;-87
2023/03/16 05:27:35;;;;;;;11.90;9.50;;;1.10;99.90;;;;;;4986199;28;20580;-87
2023/03/16 05:30:02;;;;;;;11.80;8.60;;;1.20;99.90;;;;;;4987579;28;20235;-87
2023/03/16 05:32:30;;;;;;;13.47;8.73;;;1.20;99.90;;;;;;4989864;28;20930;-87
2023/03/16 05:34:57;;;;;;;12.37;8.60;;;1.20;99.90;;;;;;4993678;28;20208;-88
2023/03/16 05:37:24;;;;;;;13.50;8.90;;;1.20;99.90;;;;;;4993242;28;20199;-87
2023/03/16 05:39:52;;;;;;;14.77;8.87;;;1.10;99.90;;;;;;4989805;28;20200;-87
2023/03/16 05:42:19;;;;;;;15.43;9.50;;;1.20;99.90;;;;;;4993836;28;20230;-85
2023/03/16 05:44:46;;;;;;;13.23;9.03;;;1.30;99.90;;;;;;4985972;28;20208;-88
2023/03/16 05:47:15;;;;;;;13.83;9.03;;;1.40;99.90;;;;;;5001469;28;20207;-86
2023/03/16 05:49:42;;;;;;;12.40;9.17;;;1.50;99.90;;;;;;4986514;28;20672;-88
2023/03/16 05:52:08;;;;;;;12.50;8.50;;;1.50;99.80;;;;;;4988453;28;20287;-86
2023/03/16 05:54:35;;;;;;;13.17;8.43;;;1.60;99.60;;;;;;4997658;28;20207;-86
2023/03/16 05:57:05;;;;;;;9.63;8.27;;;1.60;99.50;;;;;;5001044;28;20212;-84
2023/03/16 05:59:32;;;;;;;13.73;8.30;;;1.50;99.50;;;;;;4989718;28;20201;-84
2023/03/16 06:02:00;;;;;;;12.03;8.17;;;1.50;99.50;;;;;;4988635;28;20286;-86
2023/03/16 06:04:27;;;;;;;10.30;8.13;;;1.60;99.50;;;;;;4991899;28;20215;-87
2023/03/16 06:06:54;;;;;;;13.53;8.87;;;1.70;99.50;;;;;;4989593;28;20286;-89
2023/03/16 06:09:21;;;;;;;12.10;8.70;;;1.70;99.50;;;;;;4986767;28;20207;-88
2023/03/16 06:11:48;;;;;;;11.33;8.60;;;1.80;99.20;;;;;;4991399;28;20208;-88
2023/03/16 06:14:16;;;;;;;12.57;9.40;;;1.90;99.10;;;;;;4992605;28;20205;-87
2023/03/16 06:16:43;;;;;;;14.67;10.33;;;2.00;99.00;;;;;;4988717;28;20224;-86
2023/03/16 06:19:10;;;;;;;17.47;11.73;;;2.10;98.80;;;;;;4987529;28;20204;-87
2023/03/16 06:21:37;;;;;;;13.37;9.50;;;2.10;98.60;;;;;;4989735;28;20223;-86
2023/03/16 06:24:06;;;;;;;13.20;9.67;;;2.00;98.50;;;;;;4984799;28;20593;-87
2023/03/16 06:26:33;;;;;;;12.37;9.57;;;2.00;98.60;;;;;;4986597;28;20226;-84
2023/03/16 06:29:00;;;;;;;12.27;8.97;;;2.00;98.80;;;;;;4979476;28;20211;-90
2023/03/16 06:31:29;;;;;;;11.53;8.27;;;2.10;98.90;;;;;;4984276;28;20230;-88
2023/03/16 06:33:56;;;;;;;12.23;9.50;;;2.10;98.90;;;;;;4986864;28;20501;-91
2023/03/16 06:36:23;;;;;;;10.63;9.07;;;2.20;98.20;;;;;;4990556;28;20217;-88
2023/03/16 06:38:50;;;;;;;12.53;9.20;;;2.20;98.20;;;;;;4987891;28;20669;-90
2023/03/16 06:41:17;;;;;;;12.03;9.20;;;2.00;98.10;;;;;;4993182;28;20220;-88
2023/03/16 06:43:44;;;;;;;11.13;8.93;;;2.10;97.70;;;;;;4981563;28;20217;-89
2023/03/16 06:46:11;;;;;;;11.53;9.27;;;2.10;98.10;;;;;;4992645;28;20212;-88
2023/03/16 06:48:42;;;;;;;11.67;9.50;;;2.20;97.90;;;;;;4986029;28;20203;-88
2023/03/16 06:51:09;;;;;;;13.60;10.10;;;2.30;97.90;;;;;;4986498;28;20223;-88
2023/03/16 06:53:37;;;;;;;13.60;9.73;;;2.20;98.00;;;;;;4985393;28;20196;-88
2023/03/16 06:56:05;;;;;;;12.20;9.40;;;2.30;98.30;;;;;;4989198;28;20204;-87
2023/03/16 06:58:32;;;;;;;15.53;10.60;;;2.20;98.00;;;;;;4983499;28;20228;-90
2023/03/16 07:01:02;;;;;;;13.27;9.77;;;2.20;98.80;;;;;;4990456;28;20219;-87
2023/03/16 07:03:29;;;;;;;16.57;10.63;;;2.40;98.10;;;;;;4988256;28;20196;-87
2023/03/16 07:05:57;;;;;;;13.77;10.37;;;2.50;97.70;;;;;;4983976;28;20878;-87
2023/03/16 07:08:25;;;;;;;15.80;10.97;;;2.60;97.40;;;;;;5298740;23;20206;-91
2023/03/16 07:10:53;;;;;;;12.53;9.70;;;2.60;97.70;;;;;;4958502;28;20205;-89
2023/03/16 07:13:20;;;;;;;13.00;10.43;;;2.60;97.50;;;;;;4960747;28;20237;-89
2023/03/16 07:15:53;;;;;;;14.27;10.33;;;2.40;97.70;;;;;;4958737;28;20213;-90
2023/03/16 07:18:20;;;;;;;13.27;9.83;;;2.50;97.90;;;;;;4954234;28;20208;-89
2023/03/16 07:20:50;;;;;;;13.90;9.90;;;2.60;98.10;;;;;;4959616;29;20216;-90
2023/03/16 07:23:19;;;;;;;13.67;9.80;;;2.70;97.20;;;;;;4958972;28;20321;-89
2023/03/16 07:25:46;;;;;;;13.10;9.63;;;2.70;97.10;;;;;;4961746;28;20210;-93
2023/03/16 07:28:13;;;;;;;14.53;10.60;;;2.60;97.10;;;;;;4959536;29;20205;-89
2023/03/16 07:30:42;;;;;;;13.97;9.93;;;2.80;97.20;;;;;;4958771;28;20232;-90
2023/03/16 07:33:09;;;;;;;13.33;10.07;;;2.80;96.90;;;;;;4967302;29;20215;-90
2023/03/16 07:35:36;;;;;;;13.27;9.63;;;2.80;96.90;;;;;;4967007;28;20281;-91
2023/03/16 07:41:18;;;;;;;12.93;9.93;;;2.90;96.60;;;;;;5118648;27;20779;-92
2023/03/16 07:44:14;;;;;;;11.70;8.90;;;3.00;96.40;;;;;;5105696;28;20208;-92
2023/03/16 07:46:41;;;;;;;12.07;9.33;;;3.10;96.60;;;;;;5090447;28;20250;-88
2023/03/16 07:49:11;;;;;;;11.03;8.83;;;3.20;96.00;;;;;;5100731;28;20205;-89
2023/03/16 07:51:38;;;;;;;11.70;9.10;;;3.20;95.80;;;;;;5092170;28;20201;-88
2023/03/16 07:54:04;;;;;;;11.53;9.20;;;3.10;96.30;;;;;;5082915;28;20200;-88
2023/03/16 07:56:33;;;;;;;12.37;9.33;;;3.10;95.90;;;;;;5089285;28;20201;-88
2023/03/16 07:59:00;;;;;;;10.47;8.43;;;2.90;96.50;;;;;;5085005;28;20270;-88
2023/03/16 08:04:11;;;;;;;10.50;8.40;;;3.30;96.30;;;;;;5087078;28;20258;-87
2023/03/16 08:06:39;;;;;;;10.00;8.00;;;3.20;95.70;;;;;;5089296;28;20197;-89
2023/03/16 08:09:06;;;;;;;11.50;8.40;;;3.10;95.90;;;;;;5083458;28;20208;-88
2023/03/16 08:11:35;;;;;;;10.80;8.43;;;3.20;95.70;;;;;;5090080;28;20197;-89
2023/03/16 08:14:02;;;;;;;11.40;7.57;;;3.30;95.90;;;;;;5084730;28;20193;-88
2023/03/16 08:16:30;;;;;;;11.73;7.70;;;3.40;95.40;;;;;;5089620;28;20200;-88
2023/03/16 08:18:58;;;;;;;9.80;7.80;;;3.60;95.20;;;;;;5089322;28;20251;-88
2023/03/16 08:21:25;;;;;;;9.83;7.80;;;3.60;94.80;;;;;;5087669;28;20270;-88
2023/03/16 08:23:52;;;;;;;9.07;7.13;;;3.40;95.00;;;;;;5094724;28;20208;-87
2023/03/16 08:26:20;;;;;;;10.37;8.20;;;3.60;95.00;;;;;;5095888;28;20177;-88
2023/03/16 08:31:49;;;;;;;11.13;8.40;;;4.00;94.70;;;;;;5108888;28;20215;-89
2023/03/16 08:34:16;;;;;;;11.53;8.77;;;4.20;93.60;;;;;;5108956;28;20201;-89
2023/03/16 08:36:45;;;;;;;11.10;7.87;;;4.30;93.50;;;;;;5095739;28;20215;-91
2023/03/16 08:39:12;;;;;;;11.13;7.90;;;4.50;92.80;;;;;;5088230;28;20637;-89
2023/03/16 08:41:55;;;;;;;11.43;7.77;;;4.40;92.60;;;;;;5086175;28;20189;-91
2023/03/16 08:44:24;;;;;;;11.33;7.43;;;4.50;92.80;;;;;;5083770;28;20205;-90
2023/03/16 08:49:35;;;;;;;11.90;8.13;;;4.90;92.20;;;;;;5081361;28;20204;-90
2023/03/16 08:52:11;;;;;;;10.63;7.50;;;4.90;91.30;;;;;;5077867;28;20197;-91
2023/03/16 08:54:38;;;;;;;9.83;7.27;;;4.80;91.50;;;;;;5076686;28;20201;-90
2023/03/16 08:57:28;;;;;;;10.07;7.00;;;4.90;91.70;;;;;;5073566;28;20213;-90
2023/03/16 09:05:18;;;;;;;8.93;7.40;;;4.80;91.50;;;;;;5066674;28;20222;-91
2023/03/16 09:07:46;;;;;;;8.43;7.10;;;5.20;89.30;;;;;;5071715;28;20214;-92
2023/03/16 09:10:14;;;;;;;8.57;7.20;;;5.20;90.80;;;;;;5077982;28;20201;-91
2023/03/16 09:12:42;;;;;;;8.93;7.33;;;5.20;90.20;;;;;;5077428;28;20196;-93
2023/03/16 09:17:54;;;;;;;8.67;7.57;;;5.70;89.40;;;;;;5010935;28;20203;-93
2023/03/16 09:23:03;;;;;;;12.70;8.20;;;5.40;90.10;;;;;;5076457;28;20213;-94
2023/03/16 09:28:11;;;;;;;9.93;8.63;;;5.50;90.50;;;;;;5059552;28;20746;-94
2023/03/16 09:33:43;;;;;;;8.55;7.30;;;5.70;90.40;;;;;;5075518;28;20212;-93
2023/03/16 11:09:49;;;;;;;7.95;6.55;;;8.80;47.40;;;;;;4982601;28;20548;-90
2023/03/16 11:17:57;;;;;;;10.68;7.68;;;8.50;60.00;;;;;;5007930;28;20218;-92
2023/03/16 11:23:37;;;;;;;8.70;7.80;;;8.70;49.00;;;;;;5013906;28;20234;-88
2023/03/16 11:26:11;;;;;;;10.88;7.20;;;8.20;54.50;;;;;;5007891;28;20886;-88
2023/03/16 11:28:43;;;;;;;9.05;7.55;;;8.40;58.00;;;;;;5015576;28;20225;-88
2023/03/16 11:34:01;;;;;;;8.77;7.75;;;8.70;53.10;;;;;;5014455;28;20206;-89
2023/03/16 11:39:31;;;;;;;9.50;7.43;;;8.80;51.30;;;;;;5025990;28;20272;-88
2023/03/16 11:45:20;;;;;;;8.35;6.97;;;8.20;56.70;;;;;;5025663;28;20200;-88
2023/03/16 11:51:10;;;;;;;10.13;6.78;;;8.10;61.50;;;;;;5024295;28;20206;-89
2023/03/16 11:56:44;;;;;;;9.70;7.18;;;8.40;61.60;;;;;;5006171;28;20210;-89
2023/03/16 11:59:30;;;;;;;7.65;6.25;;;8.60;55.20;;;;;;5018435;28;20205;-88
2023/03/16 12:02:32;;;;;;;8.90;6.70;;;8.40;49.60;;;;;;5021385;28;20198;-88
2023/03/16 12:05:22;;;;;;;7.55;6.28;;;8.50;56.10;;;;;;5003409;28;20201;-89
2023/03/16 12:07:59;;;;;;;6.70;6.00;;;8.60;53.70;;;;;;5005701;28;20604;-88
2023/03/16 12:25:00;;;;;;;5.65;5.13;;;8.80;45.60;;;;;;5023685;28;20218;-88
2023/03/16 12:27:33;;;;;;;5.93;5.13;;;8.80;44.60;;;;;;5025561;28;20214;-88
2023/03/16 12:30:12;;;;;;;7.40;5.28;;;8.50;46.30;;;;;;5010620;28;20922;-88
2023/03/16 12:32:49;;;;;;;6.30;5.10;;;8.80;47.40;;;;;;5027112;28;20188;-89
2023/03/16 12:35:43;;;;;;;5.75;4.47;;;9.00;45.90;;;;;;5025758;28;20286;-85
2023/03/16 12:38:39;;;;;;;5.32;4.35;;;8.90;35.10;;;;;;5010309;28;20209;-88
2023/03/16 12:41:20;;;;;;;6.25;5.05;;;8.90;37.20;;;;;;5028395;28;20230;-88
2023/03/16 12:44:01;;;;;;;5.90;4.93;;;9.00;36.50;;;;;;5024980;28;20198;-90
2023/03/16 12:46:35;;;;;;;5.32;4.38;;;8.80;37.40;;;;;;5014678;28;20206;-89
2023/03/16 12:51:58;;;;;;;4.75;4.13;;;9.00;34.20;;;;;;5032222;28;20205;-90
2023/03/16 12:54:26;;;;;;;5.38;4.20;;;8.90;32.00;;;;;;5028557;28;20530;-90
2023/03/16 12:57:00;;;;;;;5.45;4.20;;;8.60;33.60;;;;;;5021885;28;20261;-90
2023/03/16 13:11:52;;;;;;;4.22;3.25;;;9.00;26.80;;;;;;4972154;28;20210;-90
2023/03/16 13:18:19;;;;;;;3.42;2.85;;;9.10;27.50;;;;;;5037082;28;20158;-90
2023/03/16 13:36:36;;;;;;;3.85;3.28;;;9.60;26.30;;;;;;4972540;28;20374;-90
2023/03/16 13:42:41;;;;;;;3.65;2.83;;;9.70;25.90;;;;;;5000911;28;20314;-90
2023/03/16 13:57:48;;;;;;;2.70;2.50;;;9.70;24.80;;;;;;4995396;28;20359;-90
2023/03/16 14:05:57;;;;;;;2.80;2.50;;;9.40;25.40;;;;;;4996468;28;20213;-89
2023/03/16 14:08:25;;;;;;;3.50;2.40;;;9.40;25.40;;;;;;4980264;28;20709;-90
2023/03/16 14:14:00;;;;;;;2.65;2.45;;;9.60;24.80;;;;;;5025236;28;20763;-90
2023/03/16 14:16:30;;;;;;;3.38;2.33;;;9.70;24.80;;;;;;5052281;28;20543;-90
2023/03/16 14:24:44;;;;;;;2.47;2.28;;;9.70;24.80;;;;;;5002127;28;20290;-89
2023/03/16 14:30:37;;;;;;;3.72;2.10;;;9.80;24.90;;;;;;5025384;28;20285;-89
2023/03/16 14:33:07;;;;;;;2.65;2.10;;;9.90;26.10;;;;;;5030138;28;20236;-90
2023/03/16 14:35:41;;;;;;;3.03;2.30;;;9.90;25.00;;;;;;5021911;28;20289;-90
2023/03/16 14:38:29;;;;;;;4.00;2.20;;;9.90;23.90;;;;;;5026846;28;20214;-90
2023/03/16 14:40:58;;;;;;;2.80;2.20;;;10.10;22.20;;;;;;5030496;28;20296;-89
2023/03/16 14:57:17;;;;;;;2.78;2.33;;;10.30;21.20;;;;;;5010128;28;20282;-89
2023/03/16 15:05:23;;;;;;;2.65;1.90;;;10.10;20.90;;;;;;4970556;28;20207;-90
2023/03/16 15:07:53;;;;;;;2.92;1.80;;;9.90;20.70;;;;;;5007277;28;20261;-90
2023/03/16 15:10:25;;;;;;;2.42;1.75;;;9.90;21.20;;;;;;5005103;28;20203;-90
2023/03/16 15:15:36;;;;;;;2.58;2.00;;;9.90;23.10;;;;;;5017558;28;20210;-90
2023/03/16 15:18:24;;;;;;;3.90;2.35;;;9.90;24.90;;;;;;5017112;28;20196;-90
2023/03/16 15:21:14;;;;;;;3.95;2.30;;;10.00;22.50;;;;;;5007833;28;20310;-90
2023/03/16 15:26:26;;;;;;;2.40;2.05;;;9.90;23.10;;;;;;5027005;28;20234;-94
2023/03/16 15:29:20;;;;;;;2.60;2.17;;;9.80;22.90;;;;;;5036642;28;20210;-90
2023/03/16 15:35:20;;;;;;;2.20;1.75;;;9.90;23.50;;;;;;5018713;28;20209;-90
2023/03/16 15:37:48;;;;;;;2.10;1.90;;;9.90;23.10;;;;;;5029696;28;20213;-92
2023/03/16 16:11:34;;;;;;;2.45;2.25;;;9.20;24.50;;;;;;4834326;29;20693;-95
2023/03/16 16:29:42;;;;;;;3.42;2.50;;;8.80;26.40;;;;;;5064286;28;20227;-94
2023/03/16 17:09:37;;;;;;;2.97;2.45;;;8.30;31.20;;;;;;5038388;28;20241;-90
2023/03/16 17:14:58;;;;;;;2.85;2.58;;;8.10;32.00;;;;;;4997100;28;20211;-87
2023/03/16 17:17:47;;;;;;;4.25;2.58;;;8.10;32.80;;;;;;5022417;28;20203;-89
2023/03/16 17:20:18;;;;;;;4.45;2.83;;;8.00;33.50;;;;;;5024307;28;20206;-90
2023/03/16 17:25:28;;;;;;;3.47;2.90;;;7.90;35.70;;;;;;5007840;28;20199;-90
2023/03/16 17:28:19;;;;;;;4.05;3.40;;;7.80;36.30;;;;;;5015323;28;20202;-89
2023/03/16 17:31:06;;;;;;;3.47;3.17;;;7.70;37.80;;;;;;5012771;28;20215;-91
2023/03/16 17:36:35;;;;;;;4.50;3.50;;;7.60;39.10;;;;;;5008436;28;20200;-90
2023/03/16 17:39:06;;;;;;;4.38;3.50;;;7.60;39.90;;;;;;5011038;28;20231;-89
2023/03/16 17:41:37;;;;;;;5.75;3.60;;;7.60;40.90;;;;;;5006290;28;20234;-89
2023/03/16 17:44:10;;;;;;;6.07;3.80;;;7.50;41.70;;;;;;5009552;28;20294;-87
2023/03/16 17:46:37;;;;;;;5.22;3.38;;;7.50;42.30;;;;;;5017339;28;20190;-88
2023/03/16 17:49:12;;;;;;;4.97;3.75;;;7.40;43.00;;;;;;5007620;28;20257;-90
2023/03/16 17:51:39;;;;;;;4.72;3.47;;;7.30;45.10;;;;;;5009552;28;20210;-91
2023/03/16 17:54:07;;;;;;;7.35;3.50;;;7.30;46.70;;;;;;5009996;28;20266;-91
2023/03/16 17:56:36;;;;;;;3.95;3.50;;;7.30;46.20;;;;;;5008470;28;20211;-88
2023/03/16 17:59:06;;;;;;;4.53;3.60;;;7.20;46.10;;;;;;4991978;28;20223;-90
2023/03/16 18:01:34;;;;;;;4.25;3.20;;;7.20;46.10;;;;;;5007741;28;20218;-88
2023/03/16 18:04:02;;;;;;;4.43;3.50;;;7.10;46.00;;;;;;5007981;28;20199;-89
2023/03/16 18:06:31;;;;;;;5.32;3.63;;;7.10;46.60;;;;;;5005604;28;20364;-89
2023/03/16 18:08:57;;;;;;;4.85;3.10;;;7.10;47.80;;;;;;5005528;28;20195;-88
2023/03/16 18:17:13;;;;;;;6.18;3.38;;;6.90;48.40;;;;;;4998530;28;20223;-88
2023/03/16 18:19:41;;;;;;;3.50;3.17;;;6.90;49.20;;;;;;5005608;28;20213;-91
2023/03/16 18:22:18;;;;;;;5.05;3.70;;;6.90;49.60;;;;;;5006157;28;20231;-89
2023/03/16 18:24:53;;;;;;;5.22;3.83;;;6.80;50.70;;;;;;5005760;28;20206;-91
2023/03/16 18:27:23;;;;;;;5.93;3.90;;;6.70;51.90;;;;;;5005984;28;20222;-91
2023/03/16 18:29:50;;;;;;;5.32;3.80;;;6.70;55.20;;;;;;5007172;28;20571;-90
2023/03/16 18:32:21;;;;;;;6.63;3.83;;;6.70;54.60;;;;;;5005777;28;20218;-90
2023/03/16 18:34:49;;;;;;;7.07;4.40;;;6.70;56.00;;;;;;5009640;28;20234;-93
2023/03/16 18:40:01;;;;;;;6.00;4.15;;;6.60;56.20;;;;;;4997859;28;20222;-91
2023/03/16 18:42:29;;;;;;;8.18;4.10;;;6.50;57.30;;;;;;5001359;28;20219;-90
2023/03/16 18:47:42;;;;;;;6.15;3.80;;;6.40;58.10;;;;;;5002559;28;20294;-89
2023/03/16 18:50:18;;;;;;;5.10;3.97;;;6.40;62.00;;;;;;5007815;28;20207;-89
2023/03/16 18:52:45;;;;;;;5.03;3.70;;;6.50;59.20;;;;;;5006607;28;20211;-89
2023/03/16 18:55:17;;;;;;;5.53;4.13;;;6.50;60.20;;;;;;5006851;28;20199;-91
2023/03/16 19:00:52;;;;;;;6.20;4.30;;;6.50;61.60;;;;;;4991025;28;20223;-88
2023/03/16 19:03:25;;;;;;;6.13;4.40;;;6.40;62.20;;;;;;5005349;28;20573;-87
2023/03/16 19:05:53;;;;;;;7.63;4.40;;;6.30;62.40;;;;;;5005169;28;20238;-87
2023/03/16 19:08:20;;;;;;;8.85;4.15;;;6.30;65.10;;;;;;5005674;28;20617;-90
2023/03/16 19:10:51;;;;;;;5.60;4.20;;;6.20;64.60;;;;;;4999190;28;20298;-91